createdAt,value
2023-03-02T00:02:05.228Z,9.73
2023-03-02T00:04:39.273Z,15.17
2023-03-02T00:07:11.704Z,8.10
2023-03-02T00:09:43.070Z,6.63
2023-03-02T00:12:12.733Z,9.13
2023-03-02T00:14:41.870Z,9.67
2023-03-02T00:17:11.348Z,10.17
2023-03-02T00:19:40.442Z,7.87
2023-03-02T00:22:11.222Z,8.43
2023-03-02T00:24:40.526Z,42.00
2023-03-02T00:27:09.667Z,20.10
2023-03-02T00:29:38.779Z,12.43
2023-03-02T00:32:08.941Z,21.10
2023-03-02T00:34:38.136Z,15.47
2023-03-02T00:37:07.180Z,9.40
2023-03-02T00:39:37.698Z,8.30
2023-03-02T00:42:06.888Z,7.50
2023-03-02T00:44:36.346Z,17.67
2023-03-02T00:47:05.599Z,15.17
2023-03-02T00:49:34.807Z,16.47
2023-03-02T00:52:03.994Z,10.00
2023-03-02T00:54:33.595Z,16.43
2023-03-02T00:57:04.050Z,17.03
2023-03-02T00:59:33.238Z,25.87
2023-03-02T01:02:17.404Z,18.07
2023-03-02T01:04:48.127Z,10.70
2023-03-02T01:07:20.678Z,13.03
2023-03-02T01:09:49.854Z,8.60
2023-03-02T01:12:20.378Z,20.27
2023-03-02T01:14:51.467Z,11.60
2023-03-02T01:17:22.106Z,8.30
2023-03-02T01:19:51.264Z,40.03
2023-03-02T01:22:21.040Z,10.37
2023-03-02T01:24:50.228Z,9.70
2023-03-02T01:27:22.176Z,9.40
2023-03-02T01:29:51.569Z,17.40
2023-03-02T01:32:20.731Z,10.77
2023-03-02T01:34:50.352Z,15.10
2023-03-02T01:37:20.707Z,16.93
2023-03-02T01:39:49.883Z,20.63
2023-03-02T01:43:17.283Z,24.20
2023-03-02T01:45:54.225Z,8.00
2023-03-02T01:48:34.585Z,22.53
2023-03-02T01:51:06.000Z,8.33
2023-03-02T01:53:36.976Z,12.63
2023-03-02T01:56:07.712Z,13.23
2023-03-02T01:58:38.931Z,8.80
2023-03-02T02:01:15.407Z,11.63
2023-03-02T02:03:46.206Z,12.07
2023-03-02T02:06:22.592Z,9.67
2023-03-02T02:08:54.965Z,11.33
2023-03-02T02:11:24.395Z,11.37
2023-03-02T02:13:57.984Z,10.53
2023-03-02T02:16:28.921Z,9.87
2023-03-02T02:18:58.112Z,22.37
2023-03-02T02:21:29.238Z,9.03
2023-03-02T02:24:09.665Z,15.20
2023-03-02T02:26:44.314Z,8.37
2023-03-02T02:29:22.572Z,20.67
2023-03-02T02:31:58.130Z,10.77
2023-03-02T02:34:31.635Z,8.10
2023-03-02T02:37:07.310Z,11.00
2023-03-02T02:39:41.434Z,7.27
2023-03-02T02:42:16.516Z,7.80
2023-03-02T02:44:45.725Z,8.47
2023-03-02T02:47:19.622Z,20.57
2023-03-02T02:49:51.391Z,10.47
2023-03-02T02:52:23.478Z,36.83
2023-03-02T02:54:55.808Z,6.73
2023-03-02T02:57:30.032Z,30.23
2023-03-02T03:00:02.267Z,14.90
2023-03-02T03:02:40.682Z,11.23
2023-03-02T03:05:14.976Z,19.23
2023-03-02T03:07:44.404Z,33.07
2023-03-02T03:10:19.091Z,7.60
2023-03-02T03:12:50.179Z,22.27
2023-03-02T03:15:22.695Z,22.03
2023-03-02T03:17:56.752Z,12.23
2023-03-02T03:20:28.025Z,7.93
2023-03-02T03:22:59.275Z,15.53
2023-03-02T03:25:29.359Z,12.57
2023-03-02T03:28:00.169Z,21.73
2023-03-02T03:30:29.336Z,9.67
2023-03-02T03:32:58.734Z,31.07
2023-03-02T03:35:27.947Z,10.80
2023-03-02T03:37:57.876Z,34.80
2023-03-02T03:40:27.099Z,9.93
2023-03-02T03:42:56.337Z,15.73
2023-03-02T03:45:28.272Z,8.20
2023-03-02T03:47:59.560Z,19.77
2023-03-02T03:50:29.307Z,29.27
2023-03-02T03:52:58.746Z,6.30
2023-03-02T03:55:31.100Z,9.80
2023-03-02T03:58:00.567Z,13.50
2023-03-02T04:00:31.203Z,8.73
2023-03-02T04:03:07.424Z,7.03
2023-03-02T04:05:36.616Z,8.93
2023-03-02T04:08:07.811Z,8.40
2023-03-02T04:10:37.602Z,8.30
2023-03-02T04:13:07.429Z,21.43
2023-03-02T04:15:39.298Z,8.97
2023-03-02T04:18:08.543Z,11.33
2023-03-02T04:20:38.550Z,16.43
2023-03-02T04:23:07.698Z,12.57
2023-03-02T04:25:36.808Z,18.10
2023-03-02T04:28:13.070Z,9.97
2023-03-02T04:30:44.788Z,27.07
2023-03-02T04:33:13.936Z,11.40
2023-03-02T04:35:43.098Z,8.67
2023-03-02T04:38:12.340Z,8.23
2023-03-02T04:40:41.514Z,10.23
2023-03-02T04:43:10.584Z,19.67
2023-03-02T04:45:40.611Z,11.47
2023-03-02T04:48:11.097Z,18.37
2023-03-02T04:50:40.938Z,12.67
2023-03-02T04:53:11.527Z,10.07
2023-03-02T04:55:41.025Z,12.33
2023-03-02T04:58:10.170Z,13.27
2023-03-02T05:00:39.290Z,8.77
2023-03-02T05:03:09.961Z,25.67
2023-03-02T05:05:39.365Z,11.27
2023-03-02T05:08:08.440Z,11.67
2023-03-02T05:10:37.500Z,10.67
2023-03-02T05:13:06.641Z,8.13
2023-03-02T05:15:38.640Z,12.83
2023-03-02T05:18:11.891Z,10.17
2023-03-02T05:20:41.293Z,19.70
2023-03-02T05:23:12.463Z,14.83
2023-03-02T05:25:41.553Z,13.10
2023-03-02T05:28:10.634Z,33.03
2023-03-02T05:30:40.628Z,60.00
2023-03-02T05:33:12.882Z,9.87
2023-03-02T05:35:44.458Z,25.07
2023-03-02T05:38:14.035Z,9.43
2023-03-02T05:40:43.397Z,29.73
2023-03-02T05:43:16.278Z,15.57
2023-03-02T05:45:45.625Z,17.63
2023-03-02T05:48:16.735Z,16.97
2023-03-02T05:50:45.807Z,9.90
2023-03-02T05:53:14.931Z,30.67
2023-03-02T05:55:44.023Z,34.33
2023-03-02T05:58:15.395Z,16.37
2023-03-02T06:00:44.748Z,26.83
2023-03-02T06:03:15.559Z,24.27
2023-03-02T06:05:45.024Z,30.93
2023-03-02T06:08:14.073Z,20.53
2023-03-02T06:10:43.341Z,26.13
2023-03-02T06:13:12.671Z,35.37
2023-03-02T06:15:43.070Z,26.10
2023-03-02T06:18:12.578Z,13.67
2023-03-02T06:20:43.317Z,15.97
2023-03-02T06:23:12.713Z,13.33
2023-03-02T06:25:48.087Z,16.00
2023-03-02T06:28:19.789Z,15.77
2023-03-02T06:30:49.830Z,43.30
2023-03-02T06:33:21.080Z,34.00
2023-03-02T06:35:51.631Z,33.83
2023-03-02T06:38:20.748Z,23.47
2023-03-02T06:40:49.847Z,26.80
2023-03-02T06:43:18.928Z,22.77
2023-03-02T06:45:48.108Z,27.13
2023-03-02T06:48:17.503Z,13.47
2023-03-02T06:50:46.576Z,20.27
2023-03-02T06:53:18.400Z,15.57
2023-03-02T06:55:48.933Z,15.87
2023-03-02T06:58:18.153Z,17.83
2023-03-02T07:00:47.272Z,32.43
2023-03-02T07:03:17.331Z,27.87
2023-03-02T07:05:48.875Z,11.83
2023-03-02T07:08:19.310Z,25.63
2023-03-02T07:10:48.369Z,41.80
2023-03-02T07:13:17.432Z,14.53
2023-03-02T07:15:46.524Z,17.33
2023-03-02T07:18:15.609Z,12.17
2023-03-02T07:20:44.738Z,12.73
2023-03-02T07:23:13.785Z,12.80
2023-03-02T07:25:44.192Z,23.67
2023-03-02T07:28:13.341Z,12.13
2023-03-02T07:30:42.428Z,28.50
2023-03-02T07:33:11.528Z,12.47
2023-03-02T07:35:40.680Z,13.77
2023-03-02T07:38:09.828Z,11.67
2023-03-02T07:40:43.447Z,13.90
2023-03-02T07:43:12.670Z,18.67
2023-03-02T07:45:41.822Z,12.00
2023-03-02T07:48:10.856Z,19.27
2023-03-02T07:50:39.926Z,22.00
2023-03-02T07:53:09.056Z,20.93
2023-03-02T07:55:43.414Z,16.63
2023-03-02T07:58:12.557Z,19.13
2023-03-02T08:00:42.760Z,26.97
2023-03-02T08:03:12.089Z,14.27
2023-03-02T08:05:41.217Z,18.57
2023-03-02T08:08:10.390Z,12.83
2023-03-02T08:10:39.473Z,12.50
2023-03-02T08:13:10.074Z,9.00
2023-03-02T08:15:39.162Z,18.50
2023-03-02T08:18:08.363Z,15.97
2023-03-02T08:20:38.101Z,20.13
2023-03-02T08:23:07.250Z,13.57
2023-03-02T08:25:38.533Z,24.47
2023-03-02T08:28:08.935Z,11.43
2023-03-02T08:30:38.037Z,15.87
2023-03-02T08:33:07.521Z,14.73
2023-03-02T08:35:36.658Z,25.33
2023-03-02T08:38:05.754Z,11.57
2023-03-02T08:40:35.014Z,11.37
2023-03-02T08:43:04.086Z,9.70
2023-03-02T08:45:36.365Z,16.07
2023-03-02T08:48:05.942Z,9.47
2023-03-02T08:50:35.104Z,10.30
2023-03-02T08:53:04.184Z,17.27
2023-03-02T08:55:36.694Z,29.87
2023-03-02T08:58:05.824Z,15.77
2023-03-02T09:00:36.362Z,13.93
2023-03-02T09:03:05.671Z,13.13
2023-03-02T09:05:35.746Z,9.40
2023-03-02T09:08:05.126Z,12.23
2023-03-02T09:10:34.273Z,11.17
2023-03-02T09:13:03.503Z,12.13
2023-03-02T09:15:32.808Z,13.20
2023-03-02T09:18:03.305Z,10.97
2023-03-02T09:20:33.946Z,10.30
2023-03-02T09:23:03.142Z,11.93
2023-03-02T09:25:32.443Z,9.77
2023-03-02T09:28:01.492Z,6.13
2023-03-02T09:30:31.661Z,11.27
2023-03-02T09:33:02.293Z,10.13
2023-03-02T09:35:31.598Z,11.17
2023-03-02T09:38:00.702Z,11.67
2023-03-02T09:40:30.897Z,9.43
2023-03-02T09:43:18.028Z,11.27
2023-03-02T09:45:59.749Z,11.13
2023-03-02T09:48:39.022Z,19.20
2023-03-02T09:51:25.513Z,11.23
2023-03-02T09:54:03.406Z,9.30
2023-03-02T09:56:35.280Z,10.83
2023-03-02T09:59:07.931Z,10.27
2023-03-02T10:01:42.758Z,11.63
2023-03-02T10:04:25.214Z,10.60
2023-03-02T10:06:58.766Z,9.83
2023-03-02T10:09:28.179Z,9.33
2023-03-02T10:12:37.759Z,10.57
2023-03-02T10:15:13.654Z,10.67
2023-03-02T10:17:55.686Z,9.37
2023-03-02T10:20:34.078Z,13.17
2023-03-02T10:23:18.783Z,10.37
2023-03-02T10:25:51.600Z,17.47
2023-03-02T10:28:22.753Z,15.57
2023-03-02T10:31:05.558Z,10.00
2023-03-02T10:33:36.263Z,9.27
2023-03-02T10:36:16.283Z,11.40
2023-03-02T10:38:46.474Z,15.73
2023-03-02T10:41:21.688Z,10.73
2023-03-02T10:43:53.801Z,11.73
2023-03-02T10:46:23.223Z,12.23
2023-03-02T10:48:53.827Z,16.87
2023-03-02T10:51:29.958Z,14.40
2023-03-02T10:54:07.538Z,16.00
2023-03-02T10:56:37.063Z,13.13
2023-03-02T10:59:30.429Z,15.83
2023-03-02T11:02:01.459Z,13.33
2023-03-02T11:04:31.669Z,14.87
2023-03-02T11:07:12.893Z,13.13
2023-03-02T11:09:41.951Z,13.00
2023-03-02T11:12:16.164Z,15.13
2023-03-02T11:14:45.251Z,15.27
2023-03-02T11:17:31.921Z,16.23
2023-03-02T11:20:03.568Z,14.93
2023-03-02T11:22:41.264Z,14.00
2023-03-02T11:25:22.682Z,12.53
2023-03-02T11:27:56.422Z,10.17
2023-03-02T11:30:29.631Z,10.87
2023-03-02T11:33:04.837Z,14.63
2023-03-02T11:35:38.144Z,11.70
2023-03-02T11:38:17.660Z,11.80
2023-03-02T11:40:52.186Z,13.27
2023-03-02T11:43:21.436Z,10.33
2023-03-02T11:45:56.398Z,9.20
2023-03-02T11:48:30.802Z,8.90
2023-03-02T11:51:04.136Z,10.87
2023-03-02T11:53:42.569Z,12.23
2023-03-02T11:56:12.074Z,10.87
2023-03-02T11:58:43.632Z,7.67
2023-03-02T12:01:18.782Z,8.60
2023-03-02T12:03:48.379Z,11.53
2023-03-02T12:06:39.280Z,11.13
2023-03-02T12:09:31.104Z,9.30
2023-03-02T12:12:15.612Z,6.30
2023-03-02T12:14:44.878Z,8.73
2023-03-02T12:17:23.846Z,9.10
2023-03-02T12:19:55.453Z,6.47
2023-03-02T12:22:30.027Z,5.17
2023-03-02T12:25:08.037Z,6.03
2023-03-02T12:27:41.965Z,8.50
2023-03-02T12:30:26.089Z,6.37
2023-03-02T12:33:04.975Z,7.83
2023-03-02T12:35:35.880Z,6.67
2023-03-02T12:38:08.752Z,7.90
2023-03-02T12:41:03.833Z,7.13
2023-03-02T12:43:34.755Z,7.90
2023-03-02T12:46:26.962Z,5.73
2023-03-02T12:49:23.128Z,8.07
2023-03-02T12:51:56.108Z,5.80
2023-03-02T12:54:26.996Z,6.23
2023-03-02T12:57:17.402Z,7.23
2023-03-02T12:59:53.437Z,9.70
2023-03-02T13:02:24.625Z,10.00
2023-03-02T13:04:55.257Z,8.13
2023-03-02T13:07:27.746Z,9.73
2023-03-02T13:10:00.216Z,8.60
2023-03-02T13:12:32.137Z,8.00
2023-03-02T13:15:01.911Z,17.13
2023-03-02T13:17:33.713Z,6.57
2023-03-02T13:20:06.262Z,7.37
2023-03-02T13:22:35.502Z,7.27
2023-03-02T13:25:08.163Z,9.63
2023-03-02T13:27:38.659Z,7.13
2023-03-02T13:30:13.353Z,7.17
2023-03-02T13:32:43.496Z,6.20
2023-03-02T13:35:24.424Z,9.23
2023-03-02T13:38:01.964Z,9.83
2023-03-02T13:40:49.519Z,7.60
2023-03-02T13:43:36.623Z,7.90
2023-03-02T13:46:07.958Z,6.70
2023-03-02T13:48:37.135Z,8.07
2023-03-02T13:51:16.952Z,5.20
2023-03-02T13:53:52.673Z,9.63
2023-03-02T13:56:26.085Z,5.70
2023-03-02T13:58:56.693Z,6.93
2023-03-02T14:01:26.130Z,7.23
2023-03-02T14:03:57.139Z,9.03
2023-03-02T14:06:26.477Z,7.03
2023-03-02T14:08:55.576Z,6.70
2023-03-02T14:11:24.759Z,5.93
2023-03-02T14:13:56.454Z,9.93
2023-03-02T14:16:26.563Z,8.47
2023-03-02T14:18:56.339Z,9.03
2023-03-02T14:21:26.864Z,8.53
2023-03-02T14:23:56.141Z,6.07
2023-03-02T14:26:34.969Z,9.57
2023-03-02T14:29:08.770Z,11.50
2023-03-02T14:31:37.893Z,8.63
2023-03-02T14:34:07.006Z,7.53
2023-03-02T14:36:36.841Z,10.90
2023-03-02T14:39:08.718Z,8.13
2023-03-02T14:41:52.460Z,8.43
2023-03-02T14:44:24.145Z,5.47
2023-03-02T14:46:53.920Z,6.53
2023-03-02T14:49:23.031Z,7.00
2023-03-02T14:51:59.996Z,7.33
2023-03-02T14:54:32.848Z,10.03
2023-03-02T14:57:01.933Z,7.77
2023-03-02T14:59:32.359Z,7.27
2023-03-02T15:02:10.391Z,6.70
2023-03-02T15:04:48.561Z,6.77
2023-03-02T15:07:19.289Z,7.83
2023-03-02T15:09:48.470Z,6.47
2023-03-02T15:12:17.661Z,8.37
2023-03-02T15:14:48.130Z,7.03
2023-03-02T15:17:17.230Z,6.87
2023-03-02T15:19:46.282Z,7.07
2023-03-02T15:22:15.752Z,6.70
2023-03-02T15:24:44.877Z,12.27
2023-03-02T15:27:14.206Z,7.57
2023-03-02T15:29:45.866Z,8.13
2023-03-02T15:32:17.257Z,9.97
2023-03-02T15:34:48.419Z,10.30
2023-03-02T15:37:17.728Z,9.73
2023-03-02T15:39:47.059Z,10.13
2023-03-02T15:42:16.118Z,9.30
2023-03-02T15:44:45.178Z,8.60
2023-03-02T15:47:15.884Z,9.83
2023-03-02T15:49:44.985Z,11.70
2023-03-02T15:52:14.477Z,8.93
2023-03-02T15:54:43.530Z,12.20
2023-03-02T15:57:12.641Z,6.77
2023-03-02T15:59:42.200Z,10.37
2023-03-02T16:02:11.783Z,10.60
2023-03-02T16:04:42.264Z,10.17
2023-03-02T16:07:11.329Z,9.80
2023-03-02T16:09:40.629Z,9.63
2023-03-02T16:12:09.804Z,10.70
2023-03-02T16:14:38.908Z,9.87
2023-03-02T16:17:07.974Z,12.33
2023-03-02T16:19:37.655Z,10.73
2023-03-02T16:22:08.080Z,11.87
2023-03-02T16:24:37.179Z,10.97
2023-03-02T16:27:06.257Z,12.83
2023-03-02T16:33:44.127Z,10.37
2023-03-02T16:36:14.226Z,10.87
2023-03-02T16:38:44.600Z,11.27
2023-03-02T16:41:15.792Z,15.97
2023-03-02T16:43:47.938Z,11.57
2023-03-02T16:46:17.886Z,12.27
2023-03-02T16:48:47.885Z,20.17
2023-03-02T16:51:18.011Z,11.50
2023-03-02T16:53:49.294Z,12.37
2023-03-02T16:56:18.583Z,14.47
2023-03-02T16:58:47.911Z,17.07
2023-03-02T17:01:19.316Z,14.60
2023-03-02T17:03:49.890Z,16.13
2023-03-02T17:06:22.182Z,14.67
2023-03-02T17:08:52.896Z,11.60
2023-03-02T17:11:22.444Z,10.60
2023-03-02T17:13:51.467Z,13.67
2023-03-02T17:16:20.741Z,15.33
2023-03-02T17:18:49.827Z,13.33
2023-03-02T17:21:18.963Z,14.63
2023-03-02T17:23:48.915Z,13.27
2023-03-02T17:26:19.321Z,15.77
2023-03-02T17:28:48.447Z,17.93
2023-03-02T17:31:17.520Z,14.00
2023-03-02T17:33:46.685Z,14.73
2023-03-02T17:36:15.787Z,16.63
2023-03-02T17:38:44.789Z,16.50
2023-03-02T17:41:13.848Z,18.13
2023-03-02T17:43:44.296Z,17.00
2023-03-02T17:46:20.129Z,19.43
2023-03-02T17:48:52.488Z,16.33
2023-03-02T17:51:23.501Z,14.50
2023-03-02T17:53:54.350Z,14.40
2023-03-02T17:56:25.359Z,13.97
2023-03-02T17:58:56.314Z,14.73
2023-03-02T18:01:25.528Z,14.57
2023-03-02T18:03:55.024Z,15.93
2023-03-02T18:06:24.464Z,16.77
2023-03-02T18:08:54.241Z,14.00
2023-03-02T18:11:25.508Z,18.87
2023-03-02T18:13:56.303Z,13.97
2023-03-02T18:16:27.857Z,16.17
2023-03-02T18:18:57.307Z,14.13
2023-03-02T18:21:26.387Z,14.10
2023-03-02T18:23:55.856Z,14.30
2023-03-02T18:26:25.545Z,14.73
2023-03-02T18:28:56.242Z,15.67
2023-03-02T18:31:25.453Z,23.33
2023-03-02T18:33:54.529Z,19.97
2023-03-02T18:36:23.571Z,18.60
2023-03-02T18:38:54.361Z,18.87
2023-03-02T18:41:24.359Z,26.37
2023-03-02T18:43:55.067Z,23.03
2023-03-02T18:46:26.836Z,25.10
2023-03-02T18:48:57.589Z,26.63
2023-03-02T18:51:27.051Z,25.43
2023-03-02T18:53:57.141Z,25.83
2023-03-02T18:56:27.507Z,27.27
2023-03-02T18:58:57.888Z,22.20
2023-03-02T19:01:30.999Z,27.37
2023-03-02T19:04:02.018Z,16.90
2023-03-02T19:06:31.432Z,18.67
2023-03-02T19:09:00.595Z,21.57
2023-03-02T19:11:29.755Z,15.40
2023-03-02T19:14:00.191Z,19.17
2023-03-02T19:16:29.329Z,22.37
2023-03-02T19:18:58.419Z,18.90
2023-03-02T19:21:27.540Z,20.07
2023-03-02T19:23:57.162Z,20.33
2023-03-02T19:26:26.193Z,20.80
2023-03-02T19:28:55.777Z,22.13
2023-03-02T19:31:27.028Z,21.63
2023-03-02T19:33:56.140Z,20.13
2023-03-02T19:36:25.292Z,18.50
2023-03-02T19:38:54.292Z,17.40
2023-03-02T19:41:23.562Z,20.93
2023-03-02T19:43:52.813Z,16.93
2023-03-02T19:46:21.867Z,23.97
2023-03-02T19:48:52.282Z,16.20
2023-03-02T19:51:21.384Z,22.63
2023-03-02T19:53:50.594Z,25.53
2023-03-02T19:56:21.810Z,18.20
2023-03-02T19:58:53.881Z,20.67
2023-03-02T20:01:24.994Z,21.10
2023-03-02T20:03:57.513Z,21.10
2023-03-02T20:06:30.981Z,19.33
2023-03-02T20:09:02.398Z,23.40
2023-03-02T20:11:32.133Z,19.70
2023-03-02T20:14:02.117Z,26.03
2023-03-02T20:16:33.204Z,27.57
2023-03-02T20:19:04.217Z,34.07
2023-03-02T20:21:34.604Z,30.37
2023-03-02T20:24:03.781Z,28.60
2023-03-02T20:26:33.249Z,29.33
2023-03-02T20:29:04.559Z,27.43
2023-03-02T20:31:35.269Z,33.17
2023-03-02T20:34:08.333Z,30.77
2023-03-02T20:36:38.088Z,25.57
2023-03-02T20:39:11.433Z,28.13
2023-03-02T20:41:40.576Z,28.13
2023-03-02T20:44:12.251Z,32.13
2023-03-02T20:46:45.130Z,28.07
2023-03-02T20:49:17.319Z,28.07
2023-03-02T20:51:52.692Z,34.27
2023-03-02T20:54:22.937Z,30.90
2023-03-02T20:56:52.700Z,31.67
2023-03-02T20:59:22.583Z,25.47
2023-03-02T21:01:52.053Z,35.90
2023-03-02T21:04:22.628Z,32.60
2023-03-02T21:06:52.135Z,37.00
2023-03-02T21:09:21.600Z,24.63
2023-03-02T21:11:50.643Z,23.30
2023-03-02T21:14:19.923Z,27.83
2023-03-02T21:16:49.142Z,27.53
2023-03-02T21:19:22.143Z,26.27
2023-03-02T21:21:55.158Z,29.90
2023-03-02T21:24:24.578Z,23.77
2023-03-02T21:26:55.216Z,22.90
2023-03-02T21:29:26.796Z,26.80
2023-03-02T21:31:56.259Z,30.63
2023-03-02T21:34:25.772Z,39.63
2023-03-02T21:36:56.165Z,26.17
2023-03-02T21:39:25.284Z,22.10
2023-03-02T21:41:55.163Z,25.13
2023-03-02T21:44:24.233Z,27.57
2023-03-02T21:46:53.262Z,30.03
2023-03-02T21:49:23.465Z,23.73
2023-03-02T21:51:52.478Z,21.17
2023-03-02T21:54:23.055Z,24.43
2023-03-02T21:56:52.144Z,25.97
2023-03-02T21:59:21.259Z,31.83
2023-03-02T22:01:50.520Z,27.37
2023-03-02T22:04:19.721Z,26.70
2023-03-02T22:06:48.810Z,31.23
2023-03-02T22:09:17.858Z,28.80
2023-03-02T22:11:49.879Z,29.13
2023-03-02T22:14:19.437Z,27.47
2023-03-02T22:16:48.935Z,30.07
2023-03-02T22:19:28.657Z,30.17
2023-03-02T22:22:00.631Z,32.30
2023-03-02T22:24:31.080Z,25.57
2023-03-02T22:27:10.036Z,27.17
2023-03-02T22:29:42.839Z,24.60
2023-03-02T22:32:18.545Z,26.43
2023-03-02T22:34:49.884Z,28.50
2023-03-02T22:37:20.965Z,36.33
2023-03-02T22:39:51.559Z,26.47
2023-03-02T22:42:23.574Z,33.60
2023-03-02T22:45:00.254Z,31.57
2023-03-02T22:47:29.380Z,33.17
2023-03-02T22:50:00.951Z,27.63
2023-03-02T22:52:36.001Z,35.93
2023-03-02T22:55:31.004Z,32.97
2023-03-02T22:58:02.338Z,38.67
2023-03-02T23:00:36.299Z,28.17
2023-03-02T23:03:17.815Z,29.67
2023-03-02T23:05:49.169Z,30.17
2023-03-02T23:08:22.227Z,27.13
2023-03-02T23:10:53.475Z,32.57
2023-03-02T23:13:27.378Z,28.43
2023-03-02T23:15:56.889Z,31.23
2023-03-02T23:18:28.598Z,32.97
2023-03-02T23:20:58.074Z,32.50
2023-03-02T23:23:28.754Z,30.20
2023-03-02T23:25:57.824Z,35.67
2023-03-02T23:28:28.290Z,27.93
2023-03-02T23:30:57.363Z,26.80
2023-03-02T23:33:26.494Z,24.40
2023-03-02T23:35:55.625Z,31.50
2023-03-02T23:38:24.630Z,33.80
2023-03-02T23:40:54.289Z,26.30
2023-03-02T23:43:23.673Z,36.60
2023-03-02T23:45:54.130Z,34.73
2023-03-02T23:48:24.369Z,26.57
2023-03-02T23:50:53.491Z,39.67
2023-03-02T23:53:22.574Z,22.97
2023-03-02T23:55:54.396Z,37.73
2023-03-02T23:58:23.691Z,32.63
